Time;durP1;ratioP1;P1;durP2;ratioP2;P2;SDS_P1;SDS_P2;PMS_P1;PMS_P2;Temp;Humidity;BMP_temperature;BMP_pressure;BME280_temperature;BME280_humidity;BME280_pressure;Samples;Min_cycle;Max_cycle;Signal;HPM_P1;HPM_P2
2020/12/28 00:01:08;;;;;;;;;;;6.40;74.80;;;;;;5031801;28;120514;-81
2020/12/28 00:03:34;;;;;;;;;;;6.40;74.80;;;;;;5031454;28;119817;-81
2020/12/28 00:05:59;;;;;;;;;;;6.40;74.80;;;;;;5034173;28;117821;-81
2020/12/28 00:08:25;;;;;;;;;;;6.40;74.90;;;;;;5033798;28;117544;-81
2020/12/28 00:10:50;;;;;;;;;;;6.40;75.00;;;;;;5033408;28;117786;-81
2020/12/28 00:13:16;;;;;;;;;;;6.40;75.00;;;;;;5033524;28;118715;-81
2020/12/28 00:15:41;;;;;;;;;;;6.40;75.10;;;;;;5034290;28;117424;-81
2020/12/28 00:18:07;;;;;;;;;;;6.40;75.20;;;;;;5034162;28;118091;-81
2020/12/28 00:20:32;;;;;;;;;;;6.40;75.30;;;;;;5027716;28;117511;-81
2020/12/28 00:22:58;;;;;;;;;;;6.40;75.20;;;;;;5026874;28;117629;-81
2020/12/28 00:25:24;;;;;;;;;;;6.40;75.20;;;;;;5027678;28;117499;-81
2020/12/28 00:27:49;;;;;;;;;;;6.40;75.30;;;;;;5029006;28;117756;-81
2020/12/28 00:30:15;;;;;;;;;;;6.40;75.40;;;;;;5026548;28;119555;-81
2020/12/28 00:32:40;;;;;;;;;;;6.30;75.40;;;;;;5027221;28;117655;-81
2020/12/28 00:35:06;;;;;;;;;;;6.30;75.60;;;;;;5028496;28;117559;-81
2020/12/28 00:37:32;;;;;;;;;;;6.30;75.50;;;;;;5012169;28;117308;-81
2020/12/28 00:39:57;;;;;;;;;;;6.40;75.60;;;;;;5027630;28;117733;-81
2020/12/28 00:42:23;;;;;;;;;;;6.30;75.50;;;;;;5027081;28;117584;-81
2020/12/28 00:44:49;;;;;;;;;;;6.40;75.60;;;;;;5029231;28;117432;-81
2020/12/28 00:47:14;;;;;;;;;;;6.40;75.70;;;;;;5029416;27;117745;-81
2020/12/28 00:49:40;;;;;;;;;;;6.40;75.60;;;;;;5028490;28;118086;-81
2020/12/28 00:52:05;;;;;;;;;;;6.40;75.70;;;;;;5029366;28;117483;-81
2020/12/28 00:54:32;;;;;;;;;;;6.40;75.60;;;;;;5029712;28;117491;-81
2020/12/28 00:56:57;;;;;;;;;;;6.40;75.70;;;;;;5030185;27;117468;-81
2020/12/28 00:59:23;;;;;;;;;;;6.40;75.60;;;;;;5028606;28;117778;-81
2020/12/28 01:01:52;;;;;;;;;;;6.40;75.50;;;;;;5029116;28;119895;-79
2020/12/28 01:04:18;;;;;;;;;;;6.40;75.60;;;;;;5030700;27;117736;-79
2020/12/28 01:06:43;;;;;;;;;;;6.40;75.50;;;;;;5030834;28;117475;-81
2020/12/28 01:09:09;;;;;;;;;;;6.40;75.60;;;;;;5030075;28;119830;-81
2020/12/28 01:11:34;;;;;;;;;;;6.40;75.60;;;;;;5030231;28;117581;-81
2020/12/28 01:14:00;;;;;;;;;;;6.40;75.70;;;;;;5032030;28;117412;-81
2020/12/28 01:16:25;;;;;;;;;;;6.40;75.80;;;;;;5032600;28;117731;-81
2020/12/28 01:18:51;;;;;;;;;;;6.40;75.90;;;;;;5031390;28;121422;-81
2020/12/28 01:21:23;;;;;;;;;;;6.40;75.80;;;;;;5032005;28;118525;-81
2020/12/28 01:23:48;;;;;;;;;;;6.40;75.70;;;;;;5030923;27;117412;-80
2020/12/28 01:26:14;;;;;;;;;;;6.40;75.70;;;;;;5030616;28;117876;-80
2020/12/28 01:28:40;;;;;;;;;;;6.40;75.90;;;;;;5029242;27;117534;-81
2020/12/28 01:31:05;;;;;;;;;;;6.40;75.80;;;;;;5030261;28;117636;-79
2020/12/28 01:33:31;;;;;;;;;;;6.40;75.90;;;;;;5027449;28;117438;-79
2020/12/28 01:35:56;;;;;;;;;;;6.40;75.90;;;;;;5027558;28;117458;-81
2020/12/28 01:38:22;;;;;;;;;;;6.40;76.00;;;;;;5026162;28;117620;-81
2020/12/28 01:40:47;;;;;;;;;;;6.40;75.80;;;;;;5025565;28;117650;-81
2020/12/28 01:43:13;;;;;;;;;;;6.40;75.80;;;;;;5027485;28;117523;-81
2020/12/28 01:45:38;;;;;;;;;;;6.40;75.80;;;;;;5027533;28;117943;-81
2020/12/28 01:48:04;;;;;;;;;;;6.40;75.80;;;;;;5026486;28;120698;-81
2020/12/28 01:50:29;;;;;;;;;;;6.40;75.90;;;;;;5026218;28;118678;-81
2020/12/28 01:52:55;;;;;;;;;;;6.40;75.80;;;;;;5026969;28;117491;-81
2020/12/28 01:55:21;;;;;;;;;;;6.40;75.90;;;;;;5027604;28;117228;-81
2020/12/28 01:57:47;;;;;;;;;;;6.40;75.90;;;;;;5027401;28;118726;-80
2020/12/28 02:00:12;;;;;;;;;;;6.40;75.90;;;;;;5026952;27;119756;-81
2020/12/28 02:02:39;;;;;;;;;;;6.40;76.00;;;;;;5027729;28;117586;-81
2020/12/28 02:05:05;;;;;;;;;;;6.40;75.90;;;;;;5028323;27;117372;-81
2020/12/28 02:07:31;;;;;;;;;;;6.50;76.00;;;;;;5027228;28;117441;-81
2020/12/28 02:09:56;;;;;;;;;;;6.50;75.90;;;;;;5027394;28;119743;-81
2020/12/28 02:12:22;;;;;;;;;;;6.50;75.90;;;;;;5029095;28;117508;-81
2020/12/28 02:14:47;;;;;;;;;;;6.50;76.00;;;;;;5029847;28;117511;-81
2020/12/28 02:17:13;;;;;;;;;;;6.50;75.90;;;;;;5028115;28;119203;-81
2020/12/28 02:19:38;;;;;;;;;;;6.50;75.90;;;;;;5027878;28;117431;-81
2020/12/28 02:22:04;;;;;;;;;;;6.50;76.10;;;;;;5029831;28;117452;-81
2020/12/28 02:24:29;;;;;;;;;;;6.50;76.10;;;;;;5029827;28;117310;-81
2020/12/28 02:26:55;;;;;;;;;;;6.50;76.10;;;;;;5029171;28;120514;-81
2020/12/28 02:29:20;;;;;;;;;;;6.50;76.20;;;;;;5028685;28;117649;-81
2020/12/28 02:31:46;;;;;;;;;;;6.50;76.10;;;;;;5031008;28;117296;-81
2020/12/28 02:34:11;;;;;;;;;;;6.50;76.10;;;;;;5032266;28;117389;-81
2020/12/28 02:36:37;;;;;;;;;;;6.50;76.10;;;;;;5030378;28;118446;-81
2020/12/28 02:39:02;;;;;;;;;;;6.50;76.20;;;;;;5030868;28;118688;-81
2020/12/28 02:41:28;;;;;;;;;;;6.40;76.10;;;;;;5032258;28;117312;-81
2020/12/28 02:43:53;;;;;;;;;;;6.40;76.20;;;;;;5031849;28;117548;-81
2020/12/28 02:46:19;;;;;;;;;;;6.50;76.20;;;;;;5028804;28;117901;-81
2020/12/28 02:48:44;;;;;;;;;;;6.50;76.20;;;;;;5025233;28;117510;-81
2020/12/28 02:51:13;;;;;;;;;;;6.50;76.20;;;;;;5026079;27;117469;-81
2020/12/28 02:53:39;;;;;;;;;;;6.50;76.30;;;;;;5030042;28;117915;-81
2020/12/28 02:56:04;;;;;;;;;;;6.40;76.30;;;;;;5028808;27;118653;-81
2020/12/28 02:58:30;;;;;;;;;;;6.50;76.50;;;;;;5028207;28;117425;-81
2020/12/28 03:00:55;;;;;;;;;;;6.50;76.50;;;;;;5029712;28;117860;-81
2020/12/28 03:03:21;;;;;;;;;;;6.50;76.40;;;;;;5029784;28;117462;-81
2020/12/28 03:05:46;;;;;;;;;;;6.50;76.40;;;;;;5028689;28;119669;-81
2020/12/28 03:08:12;;;;;;;;;;;6.50;76.50;;;;;;5027470;28;119901;-81
2020/12/28 03:10:37;;;;;;;;;;;6.40;76.40;;;;;;5029398;28;117306;-81
2020/12/28 03:13:03;;;;;;;;;;;6.50;76.40;;;;;;5030920;28;117449;-81
2020/12/28 03:15:28;;;;;;;;;;;6.50;76.40;;;;;;5028947;28;118448;-81
2020/12/28 03:17:54;;;;;;;;;;;6.50;76.40;;;;;;5029007;28;118315;-81
2020/12/28 03:20:19;;;;;;;;;;;6.50;76.40;;;;;;5029761;28;117749;-81
2020/12/28 03:22:45;;;;;;;;;;;6.50;76.50;;;;;;5030989;28;117539;-81
2020/12/28 03:25:10;;;;;;;;;;;6.50;76.50;;;;;;5029685;28;117649;-81
2020/12/28 03:27:36;;;;;;;;;;;6.50;76.40;;;;;;5030120;28;117930;-80
2020/12/28 03:30:01;;;;;;;;;;;6.50;76.40;;;;;;5030614;28;117490;-81
2020/12/28 03:32:27;;;;;;;;;;;6.50;76.40;;;;;;5030857;28;117460;-81
2020/12/28 03:34:52;;;;;;;;;;;6.50;76.50;;;;;;5030949;28;118444;-81
2020/12/28 03:37:18;;;;;;;;;;;6.50;76.40;;;;;;5031357;28;117384;-81
2020/12/28 03:39:43;;;;;;;;;;;6.50;76.50;;;;;;5031410;28;117338;-81
2020/12/28 03:42:09;;;;;;;;;;;6.50;76.50;;;;;;5032549;28;117943;-81
2020/12/28 03:44:34;;;;;;;;;;;6.50;76.60;;;;;;5031385;28;120537;-81
2020/12/28 03:47:00;;;;;;;;;;;6.50;76.60;;;;;;5031936;28;118008;-81
2020/12/28 03:49:25;;;;;;;;;;;6.50;76.60;;;;;;5032213;28;117566;-81
2020/12/28 03:51:51;;;;;;;;;;;6.50;76.60;;;;;;5033641;28;117357;-81
2020/12/28 03:54:16;;;;;;;;;;;6.50;76.60;;;;;;5031772;28;120848;-81
2020/12/28 03:56:42;;;;;;;;;;;6.50;76.60;;;;;;5032217;28;116828;-81
2020/12/28 03:59:07;;;;;;;;;;;6.50;76.60;;;;;;5032342;28;117227;-81
2020/12/28 04:01:33;;;;;;;;;;;6.50;76.60;;;;;;5028808;28;117325;-81
2020/12/28 04:03:59;;;;;;;;;;;6.50;76.60;;;;;;5026005;28;118598;-81
2020/12/28 04:06:24;;;;;;;;;;;6.50;76.60;;;;;;5026630;28;117986;-81
2020/12/28 04:08:50;;;;;;;;;;;6.50;76.70;;;;;;5027444;28;117484;-81
2020/12/28 04:11:15;;;;;;;;;;;6.50;76.60;;;;;;5028507;28;117793;-80
2020/12/28 04:13:41;;;;;;;;;;;6.50;76.60;;;;;;5026995;28;120616;-80
2020/12/28 04:16:06;;;;;;;;;;;6.50;76.60;;;;;;5027570;28;118828;-81
2020/12/28 04:18:32;;;;;;;;;;;6.50;76.50;;;;;;5027706;28;117847;-81
2020/12/28 04:20:57;;;;;;;;;;;6.50;76.60;;;;;;5028446;28;117837;-81
2020/12/28 04:23:23;;;;;;;;;;;6.50;76.60;;;;;;5027563;28;118392;-81
2020/12/28 04:25:48;;;;;;;;;;;6.50;76.70;;;;;;5028064;28;117280;-79
2020/12/28 04:28:14;;;;;;;;;;;6.50;76.70;;;;;;5028572;28;117324;-81
2020/12/28 04:30:39;;;;;;;;;;;6.50;76.70;;;;;;5029111;28;117262;-81
2020/12/28 04:33:05;;;;;;;;;;;6.50;76.70;;;;;;5027622;28;120658;-81
2020/12/28 04:35:30;;;;;;;;;;;6.50;76.80;;;;;;5028743;28;117753;-81
2020/12/28 04:37:56;;;;;;;;;;;6.50;76.70;;;;;;5029983;28;117336;-80
2020/12/28 04:40:21;;;;;;;;;;;6.50;76.70;;;;;;5029546;28;117881;-81
2020/12/28 04:42:47;;;;;;;;;;;6.50;76.80;;;;;;5028452;28;119784;-80
2020/12/28 04:45:12;;;;;;;;;;;6.50;76.80;;;;;;5027691;28;119089;-81
2020/12/28 04:47:38;;;;;;;;;;;6.50;76.80;;;;;;5029529;28;117359;-81
2020/12/28 04:50:04;;;;;;;;;;;6.50;76.80;;;;;;5030006;28;117471;-81
2020/12/28 04:52:29;;;;;;;;;;;6.50;76.80;;;;;;5029302;27;120115;-80
2020/12/28 04:54:55;;;;;;;;;;;6.50;76.90;;;;;;5030038;28;119692;-80
2020/12/28 04:57:20;;;;;;;;;;;6.50;76.80;;;;;;5030597;28;117507;-80
2020/12/28 04:59:46;;;;;;;;;;;6.50;76.80;;;;;;5030677;28;117735;-80
2020/12/28 05:02:11;;;;;;;;;;;6.50;76.90;;;;;;5030131;28;119728;-80
2020/12/28 05:04:37;;;;;;;;;;;6.50;76.80;;;;;;5030164;28;120372;-80
2020/12/28 05:07:03;;;;;;;;;;;6.50;76.80;;;;;;5032436;28;117468;-80
2020/12/28 05:09:29;;;;;;;;;;;6.50;76.90;;;;;;5032209;28;117209;-81
2020/12/28 05:11:55;;;;;;;;;;;6.50;76.90;;;;;;5031687;28;120138;-80
2020/12/28 05:14:20;;;;;;;;;;;6.50;76.90;;;;;;5025856;27;120556;-80
2020/12/28 05:16:46;;;;;;;;;;;6.50;76.90;;;;;;5025195;28;117619;-80
2020/12/28 05:19:12;;;;;;;;;;;6.50;76.90;;;;;;5026951;27;117856;-80
2020/12/28 05:21:38;;;;;;;;;;;6.50;77.00;;;;;;5026037;28;118678;-81
2020/12/28 05:24:10;;;;;;;;;;;6.50;77.60;;;;;;5026540;28;118394;-81
2020/12/28 05:26:36;;;;;;;;;;;6.50;77.00;;;;;;5027169;27;117308;-81
2020/12/28 05:29:02;;;;;;;;;;;6.50;77.00;;;;;;5009929;28;117374;-81
2020/12/28 05:31:27;;;;;;;;;;;6.50;77.00;;;;;;5026185;28;120741;-81
2020/12/28 05:33:53;;;;;;;;;;;6.50;77.00;;;;;;5025355;28;118136;-80
2020/12/28 05:36:18;;;;;;;;;;;6.50;77.00;;;;;;5027531;28;117925;-81
2020/12/28 05:38:44;;;;;;;;;;;6.50;77.00;;;;;;5027526;28;117672;-81
2020/12/28 05:41:10;;;;;;;;;;;6.50;77.00;;;;;;5026328;28;120373;-81
2020/12/28 05:43:35;;;;;;;;;;;6.50;77.10;;;;;;5027164;28;117776;-80
2020/12/28 05:46:01;;;;;;;;;;;6.50;77.10;;;;;;5027957;28;117954;-80
2020/12/28 05:48:26;;;;;;;;;;;6.50;77.20;;;;;;5027908;28;118338;-81
2020/12/28 05:50:56;;;;;;;;;;;6.50;77.20;;;;;;5027258;28;119658;-81
2020/12/28 05:53:25;;;;;;;;;;;6.50;77.20;;;;;;5027229;27;119553;-81
2020/12/28 05:55:50;;;;;;;;;;;6.50;77.20;;;;;;5028754;27;117622;-81
2020/12/28 05:58:16;;;;;;;;;;;6.50;77.20;;;;;;5028112;28;117595;-80
2020/12/28 06:00:42;;;;;;;;;;;6.50;77.20;;;;;;5027489;27;117443;-80
2020/12/28 06:03:08;;;;;;;;;;;6.50;77.20;;;;;;5027624;28;117642;-80
2020/12/28 06:05:33;;;;;;;;;;;6.50;77.10;;;;;;5029957;28;117474;-81
2020/12/28 06:07:59;;;;;;;;;;;6.50;77.20;;;;;;5029880;28;117769;-81
2020/12/28 06:10:24;;;;;;;;;;;6.50;77.20;;;;;;5028493;28;120822;-81
2020/12/28 06:12:55;;;;;;;;;;;6.50;77.20;;;;;;5029700;28;117616;-81
2020/12/28 06:15:20;;;;;;;;;;;6.50;77.20;;;;;;5031098;27;117456;-80
2020/12/28 06:17:46;;;;;;;;;;;6.50;77.20;;;;;;5031628;28;117710;-80
2020/12/28 06:20:12;;;;;;;;;;;6.50;77.20;;;;;;5030555;27;119775;-80
2020/12/28 06:22:37;;;;;;;;;;;6.50;77.20;;;;;;5031032;28;117560;-80
2020/12/28 06:25:03;;;;;;;;;;;6.50;77.20;;;;;;5032540;28;117520;-80
2020/12/28 06:27:33;;;;;;;;;;;6.50;77.20;;;;;;5029847;27;117428;-80
2020/12/28 06:30:08;;;;;;;;;;;6.50;77.30;;;;;;5028718;28;117639;-80
2020/12/28 06:32:34;;;;;;;;;;;6.50;77.20;;;;;;5028643;27;117400;-80
2020/12/28 06:35:00;;;;;;;;;;;6.50;77.30;;;;;;5029644;28;117440;-80
2020/12/28 06:37:26;;;;;;;;;;;6.50;77.30;;;;;;5030111;27;117760;-80
2020/12/28 06:39:55;;;;;;;;;;;6.50;77.30;;;;;;5028710;28;120422;-80
2020/12/28 06:42:21;;;;;;;;;;;6.50;77.30;;;;;;5012230;28;117532;-80
2020/12/28 06:44:46;;;;;;;;;;;6.50;77.30;;;;;;5029914;28;117517;-81
2020/12/28 06:47:18;;;;;;;;;;;6.50;77.30;;;;;;5030473;28;117881;-80
2020/12/28 06:49:44;;;;;;;;;;;6.50;77.30;;;;;;5029107;28;120564;-80
2020/12/28 06:52:10;;;;;;;;;;;6.50;77.40;;;;;;5030074;28;119800;-79
2020/12/28 06:54:35;;;;;;;;;;;6.50;77.30;;;;;;5031409;28;117514;-79
2020/12/28 06:57:01;;;;;;;;;;;6.50;77.40;;;;;;5031390;28;117308;-79
2020/12/28 06:59:27;;;;;;;;;;;6.50;77.30;;;;;;5029911;28;121450;-80
2020/12/28 07:01:52;;;;;;;;;;;6.50;77.40;;;;;;5030164;28;119627;-81
2020/12/28 07:04:18;;;;;;;;;;;6.50;77.40;;;;;;5031103;28;117352;-80
2020/12/28 07:06:43;;;;;;;;;;;6.50;77.40;;;;;;5032338;28;117871;-80
2020/12/28 07:09:09;;;;;;;;;;;6.50;77.40;;;;;;5030970;28;119043;-81
2020/12/28 07:11:35;;;;;;;;;;;6.50;77.40;;;;;;5029997;28;117872;-80
2020/12/28 07:14:04;;;;;;;;;;;6.50;77.40;;;;;;5032355;28;117585;-81
2020/12/28 07:16:29;;;;;;;;;;;6.50;77.40;;;;;;5032522;28;117892;-80
2020/12/28 07:19:05;;;;;;;;;;;6.50;77.40;;;;;;5031282;28;119887;-80
2020/12/28 07:21:31;;;;;;;;;;;6.50;77.40;;;;;;5034010;28;118291;-81
2020/12/28 07:23:56;;;;;;;;;;;6.50;77.40;;;;;;5033353;27;117868;-80
2020/12/28 07:26:22;;;;;;;;;;;6.50;77.50;;;;;;5033624;28;117954;-80
2020/12/28 07:28:47;;;;;;;;;;;6.50;77.50;;;;;;5032576;28;117306;-81
2020/12/28 07:31:13;;;;;;;;;;;6.50;77.50;;;;;;5033140;28;118157;-81
2020/12/28 07:33:45;;;;;;;;;;;6.60;77.50;;;;;;5033836;28;117444;-80
2020/12/28 07:36:14;;;;;;;;;;;6.60;77.50;;;;;;5033580;27;117760;-81
2020/12/28 07:38:43;;;;;;;;;;;6.60;77.40;;;;;;5033130;27;119558;-80
2020/12/28 07:41:15;;;;;;;;;;;6.60;77.60;;;;;;5028703;28;118795;-80
2020/12/28 07:43:56;;;;;;;;;;;6.50;77.50;;;;;;5028983;27;117681;-80
2020/12/28 07:46:30;;;;;;;;;;;6.60;77.60;;;;;;5028916;27;117431;-82
2020/12/28 07:48:56;;;;;;;;;;;6.50;77.50;;;;;;5026561;28;119117;-82
2020/12/28 07:51:22;;;;;;;;;;;6.60;77.60;;;;;;5026863;27;119380;-82
2020/12/28 07:53:49;;;;;;;;;;;6.60;77.60;;;;;;5028085;28;117353;-82
2020/12/28 07:56:22;;;;;;;;;;;6.60;77.60;;;;;;5028119;27;118027;-82
2020/12/28 07:59:07;;;;;;;;;;;6.60;77.60;;;;;;5026905;27;120346;-82
2020/12/28 08:01:34;;;;;;;;;;;6.60;77.50;;;;;;5028475;28;117553;-82
2020/12/28 08:04:00;;;;;;;;;;;6.60;78.10;;;;;;5028173;27;117503;-82
2020/12/28 08:06:25;;;;;;;;;;;6.50;77.50;;;;;;5028640;27;117988;-82
2020/12/28 08:09:01;;;;;;;;;;;6.60;77.60;;;;;;5027667;28;117753;-82
2020/12/28 08:11:30;;;;;;;;;;;6.60;77.60;;;;;;5027827;28;117745;-82
2020/12/28 08:13:55;;;;;;;;;;;6.60;77.60;;;;;;5028394;28;117327;-82
2020/12/28 08:16:21;;;;;;;;;;;6.60;77.50;;;;;;5029202;27;117261;-82
2020/12/28 08:18:47;;;;;;;;;;;6.60;77.50;;;;;;5027496;28;118700;-82
2020/12/28 08:21:13;;;;;;;;;;;6.60;77.50;;;;;;5011729;28;117334;-82
2020/12/28 08:23:38;;;;;;;;;;;6.60;77.50;;;;;;5028989;28;117391;-82
2020/12/28 08:26:20;;;;;;;;;;;6.60;78.10;;;;;;5029050;28;117709;-82
2020/12/28 08:28:46;;;;;;;;;;;6.60;77.50;;;;;;5010355;28;118299;-82
2020/12/28 08:31:12;;;;;;;;;;;6.60;77.60;;;;;;5027610;28;117659;-82
2020/12/28 08:33:38;;;;;;;;;;;6.60;77.60;;;;;;5027845;28;117570;-82
2020/12/28 08:36:03;;;;;;;;;;;6.60;77.60;;;;;;5028576;28;117921;-82
2020/12/28 08:38:29;;;;;;;;;;;6.60;77.60;;;;;;5027775;28;117354;-81
2020/12/28 08:40:55;;;;;;;;;;;6.60;77.70;;;;;;5027907;27;119596;-82
2020/12/28 08:43:20;;;;;;;;;;;6.60;77.60;;;;;;5028772;28;117662;-82
2020/12/28 08:45:46;;;;;;;;;;;6.60;77.60;;;;;;5029517;28;117823;-82
2020/12/28 08:48:12;;;;;;;;;;;6.60;77.60;;;;;;5028495;28;117540;-82
2020/12/28 08:50:38;;;;;;;;;;;6.60;77.70;;;;;;5027218;27;117951;-82
2020/12/28 08:53:03;;;;;;;;;;;6.60;77.60;;;;;;5028767;28;117419;-82
2020/12/28 08:55:29;;;;;;;;;;;6.60;77.60;;;;;;5027251;28;117883;-83
2020/12/28 08:57:55;;;;;;;;;;;6.60;77.60;;;;;;5025509;28;117489;-83
2020/12/28 09:00:24;;;;;;;;;;;6.60;77.60;;;;;;5025244;27;117686;-82
2020/12/28 09:02:53;;;;;;;;;;;6.60;77.60;;;;;;5026211;28;117913;-82
2020/12/28 09:05:19;;;;;;;;;;;6.60;77.60;;;;;;5027094;28;117804;-82
2020/12/28 09:07:45;;;;;;;;;;;6.60;77.70;;;;;;5025460;28;120675;-82
2020/12/28 09:10:10;;;;;;;;;;;6.60;77.60;;;;;;5025573;28;117495;-82
2020/12/28 09:12:36;;;;;;;;;;;6.60;77.60;;;;;;5025959;28;117274;-82
2020/12/28 09:15:01;;;;;;;;;;;6.60;77.60;;;;;;5025777;28;117812;-82
2020/12/28 09:17:27;;;;;;;;;;;6.60;77.60;;;;;;5024838;28;119058;-82
2020/12/28 09:19:52;;;;;;;;;;;6.60;77.70;;;;;;5025010;28;118556;-82
2020/12/28 09:22:18;;;;;;;;;;;6.60;77.60;;;;;;5026058;28;117397;-82
2020/12/28 09:24:43;;;;;;;;;;;6.60;77.70;;;;;;5026618;28;117874;-82
2020/12/28 09:27:09;;;;;;;;;;;6.60;77.60;;;;;;5025399;28;120126;-82
2020/12/28 09:29:34;;;;;;;;;;;6.60;77.60;;;;;;5025499;28;119526;-82
2020/12/28 09:32:00;;;;;;;;;;;6.60;77.60;;;;;;5026944;28;117532;-82
2020/12/28 09:34:25;;;;;;;;;;;6.60;77.60;;;;;;5026821;28;117590;-82
2020/12/28 09:37:04;;;;;;;;;;;6.60;77.60;;;;;;5025840;28;118391;-82
2020/12/28 09:39:29;;;;;;;;;;;6.60;77.70;;;;;;5025058;28;120763;-82
2020/12/28 09:41:55;;;;;;;;;;;6.60;77.70;;;;;;5026576;28;117570;-82
2020/12/28 09:44:21;;;;;;;;;;;6.60;77.80;;;;;;5026974;28;117757;-82
2020/12/28 09:46:46;;;;;;;;;;;6.70;77.70;;;;;;5025924;28;117449;-82
2020/12/28 09:49:12;;;;;;;;;;;6.60;77.70;;;;;;5026223;28;117340;-82
2020/12/28 09:51:37;;;;;;;;;;;6.70;77.80;;;;;;5027162;28;117401;-82
2020/12/28 09:54:03;;;;;;;;;;;6.70;77.80;;;;;;5027575;28;117356;-82
2020/12/28 09:56:28;;;;;;;;;;;6.70;77.80;;;;;;5026238;28;119166;-82
2020/12/28 09:58:54;;;;;;;;;;;6.70;77.80;;;;;;5026632;28;120481;-82
2020/12/28 10:01:19;;;;;;;;;;;6.70;77.80;;;;;;5028191;28;117495;-82
2020/12/28 10:03:45;;;;;;;;;;;6.70;77.80;;;;;;5027941;28;117519;-82
2020/12/28 10:06:32;;;;;;;;;;;6.60;77.80;;;;;;5027229;28;117495;-82
2020/12/28 10:08:58;;;;;;;;;;;6.60;77.80;;;;;;5025125;28;119525;-82
2020/12/28 10:11:23;;;;;;;;;;;6.60;77.80;;;;;;5025530;27;117530;-82
2020/12/28 10:13:49;;;;;;;;;;;6.70;77.80;;;;;;5026526;28;117561;-82
2020/12/28 10:16:19;;;;;;;;;;;6.60;78.40;;;;;;5025164;28;117423;-82
2020/12/28 10:18:45;;;;;;;;;;;6.70;77.90;;;;;;5024559;27;120160;-82
2020/12/28 10:21:10;;;;;;;;;;;6.70;78.00;;;;;;5026065;28;117827;-82
2020/12/28 10:23:36;;;;;;;;;;;6.60;77.90;;;;;;5026231;28;117827;-82
2020/12/28 10:26:03;;;;;;;;;;;6.70;78.00;;;;;;5025203;28;118377;-82
2020/12/28 10:28:29;;;;;;;;;;;6.70;77.90;;;;;;5024516;27;119734;-82
2020/12/28 10:30:54;;;;;;;;;;;6.70;77.90;;;;;;5025877;28;117535;-82
2020/12/28 10:33:19;;;;;;;;;;;6.70;77.90;;;;;;5026703;28;118010;-82
2020/12/28 10:35:45;;;;;;;;;;;6.70;77.90;;;;;;5025298;28;118694;-82
2020/12/28 10:38:10;;;;;;;;;;;6.70;78.00;;;;;;5025397;28;118000;-82
2020/12/28 10:40:36;;;;;;;;;;;6.70;77.90;;;;;;5025633;28;117776;-82
2020/12/28 10:43:02;;;;;;;;;;;6.70;77.90;;;;;;5025715;28;117968;-82
2020/12/28 10:45:27;;;;;;;;;;;6.70;77.90;;;;;;5025250;28;119102;-82
2020/12/28 10:47:53;;;;;;;;;;;6.70;77.90;;;;;;5025107;28;117571;-82
2020/12/28 10:50:18;;;;;;;;;;;6.70;77.90;;;;;;5025942;28;117681;-82
2020/12/28 10:52:44;;;;;;;;;;;6.70;77.90;;;;;;5026058;28;117722;-82
2020/12/28 10:55:09;;;;;;;;;;;6.70;77.90;;;;;;5024768;28;119635;-82
2020/12/28 10:57:35;;;;;;;;;;;6.70;77.80;;;;;;5025130;28;119840;-82
2020/12/28 11:00:00;;;;;;;;;;;6.70;77.90;;;;;;5026050;28;117704;-82
2020/12/28 11:02:26;;;;;;;;;;;6.70;78.00;;;;;;5026917;28;117463;-82
2020/12/28 11:04:51;;;;;;;;;;;6.70;77.90;;;;;;5025756;28;119484;-82
2020/12/28 11:07:17;;;;;;;;;;;6.70;78.00;;;;;;5025796;28;119537;-82
2020/12/28 11:09:42;;;;;;;;;;;6.70;78.60;;;;;;5027142;28;117740;-82
2020/12/28 11:12:08;;;;;;;;;;;6.70;78.00;;;;;;5027352;28;118077;-82
2020/12/28 11:14:33;;;;;;;;;;;6.70;78.00;;;;;;5029151;27;117778;-82
2020/12/28 11:17:02;;;;;;;;;;;6.70;78.10;;;;;;5028983;28;119506;-82
2020/12/28 11:19:28;;;;;;;;;;;6.70;78.00;;;;;;5013554;28;117536;-82
2020/12/28 11:21:53;;;;;;;;;;;6.70;77.90;;;;;;5029155;28;117719;-83
2020/12/28 11:24:19;;;;;;;;;;;6.70;77.90;;;;;;5027231;28;118548;-83
2020/12/28 11:26:44;;;;;;;;;;;6.70;77.90;;;;;;5026782;28;119903;-83
2020/12/28 11:29:10;;;;;;;;;;;6.70;78.00;;;;;;5028035;28;117765;-83
2020/12/28 11:31:35;;;;;;;;;;;6.70;78.00;;;;;;5028351;28;117938;-83
2020/12/28 11:34:01;;;;;;;;;;;6.70;78.00;;;;;;5027220;28;117545;-83
2020/12/28 11:36:26;;;;;;;;;;;6.70;77.90;;;;;;5026832;28;118075;-83
2020/12/28 11:38:52;;;;;;;;;;;6.70;77.90;;;;;;5027805;28;117494;-83
2020/12/28 11:41:18;;;;;;;;;;;6.70;78.00;;;;;;5027376;28;117868;-83
2020/12/28 11:43:43;;;;;;;;;;;6.70;78.00;;;;;;5026979;28;119414;-83
2020/12/28 11:46:09;;;;;;;;;;;6.70;78.10;;;;;;5027254;27;118265;-83
2020/12/28 11:48:35;;;;;;;;;;;6.70;78.10;;;;;;5027731;28;117654;-83
2020/12/28 11:51:01;;;;;;;;;;;6.70;78.20;;;;;;5028734;28;117817;-83
2020/12/28 11:53:26;;;;;;;;;;;6.70;78.00;;;;;;5027581;28;117452;-83
2020/12/28 11:58:36;;;;;;;;;;;6.70;78.10;;;;;;5026198;28;117261;-83
2020/12/28 12:01:02;;;;;;;;;;;6.70;78.20;;;;;;5028861;28;117777;-83
2020/12/28 12:03:28;;;;;;;;;;;6.70;78.10;;;;;;5027374;27;120537;-83
2020/12/28 12:05:55;;;;;;;;;;;6.70;78.10;;;;;;5027137;27;118781;-83
2020/12/28 12:08:20;;;;;;;;;;;6.80;78.10;;;;;;5028522;27;117527;-83
2020/12/28 12:10:46;;;;;;;;;;;6.70;78.00;;;;;;5030184;28;117476;-83
2020/12/28 12:13:11;;;;;;;;;;;6.70;78.20;;;;;;5028315;28;119657;-83
2020/12/28 12:15:44;;;;;;;;;;;6.70;78.10;;;;;;5027670;28;117885;-83
2020/12/28 12:18:09;;;;;;;;;;;6.80;78.20;;;;;;5028481;27;117513;-82
2020/12/28 12:20:35;;;;;;;;;;;6.80;78.30;;;;;;5029633;28;118049;-82
2020/12/28 12:23:00;;;;;;;;;;;6.70;78.20;;;;;;5027903;28;119442;-82
2020/12/28 12:25:26;;;;;;;;;;;6.70;78.30;;;;;;5027196;27;119567;-82
2020/12/28 12:27:51;;;;;;;;;;;6.80;78.30;;;;;;5028921;28;117540;-82
2020/12/28 12:30:17;;;;;;;;;;;6.70;78.30;;;;;;5028781;28;117490;-82
2020/12/28 12:32:42;;;;;;;;;;;6.70;78.30;;;;;;5028294;28;119562;-82
2020/12/28 12:35:08;;;;;;;;;;;6.80;78.30;;;;;;5026886;28;118913;-82
2020/12/28 12:37:33;;;;;;;;;;;6.70;78.30;;;;;;5027052;28;117402;-82
2020/12/28 12:39:59;;;;;;;;;;;6.70;78.30;;;;;;5027560;28;117874;-82
2020/12/28 12:42:25;;;;;;;;;;;6.80;78.40;;;;;;5026252;28;117590;-82
2020/12/28 12:44:50;;;;;;;;;;;6.70;78.40;;;;;;5009194;28;120263;-82
2020/12/28 12:47:16;;;;;;;;;;;6.80;78.40;;;;;;5027040;28;117560;-82
2020/12/28 12:49:41;;;;;;;;;;;6.80;78.30;;;;;;5027149;28;117816;-82
2020/12/28 12:52:25;;;;;;;;;;;6.80;78.50;;;;;;5025968;28;118778;-82
2020/12/28 12:54:50;;;;;;;;;;;6.80;78.40;;;;;;5025627;28;117488;-82
2020/12/28 12:57:18;;;;;;;;;;;6.80;78.50;;;;;;5027208;28;117511;-82
2020/12/28 13:02:27;;;;;;;;;;;6.80;78.40;;;;;;5023651;28;117342;-82
2020/12/28 13:04:53;;;;;;;;;;;6.80;78.30;;;;;;5026469;28;119318;-82
2020/12/28 13:07:18;;;;;;;;;;;6.80;78.30;;;;;;5027644;28;117577;-82
2020/12/28 13:09:44;;;;;;;;;;;6.80;78.30;;;;;;5027605;28;117923;-82
2020/12/28 13:12:09;;;;;;;;;;;6.80;78.50;;;;;;5026810;28;118381;-82
2020/12/28 13:14:35;;;;;;;;;;;6.80;78.40;;;;;;5026431;28;120390;-82
2020/12/28 13:17:00;;;;;;;;;;;6.70;78.50;;;;;;5027115;28;117405;-82
2020/12/28 13:19:26;;;;;;;;;;;6.70;78.50;;;;;;5027397;28;117721;-82
2020/12/28 13:21:52;;;;;;;;;;;6.70;78.50;;;;;;5026580;28;117594;-82
2020/12/28 13:24:17;;;;;;;;;;;6.80;78.40;;;;;;5026208;28;119818;-82
2020/12/28 13:26:43;;;;;;;;;;;6.80;78.50;;;;;;5028103;28;117596;-82
2020/12/28 13:29:08;;;;;;;;;;;6.80;78.40;;;;;;5027580;28;117927;-82
2020/12/28 13:31:34;;;;;;;;;;;6.80;78.60;;;;;;5026660;28;119890;-82
2020/12/28 13:34:00;;;;;;;;;;;6.80;78.60;;;;;;5027393;28;119591;-82
2020/12/28 13:36:32;;;;;;;;;;;6.80;78.70;;;;;;5026931;27;117357;-82
2020/12/28 13:38:58;;;;;;;;;;;6.70;78.70;;;;;;5011795;28;118631;-82
2020/12/28 13:41:23;;;;;;;;;;;6.70;79.10;;;;;;5027578;28;117580;-82
2020/12/28 13:43:49;;;;;;;;;;;6.70;79.10;;;;;;5026472;28;119550;-82
2020/12/28 13:46:15;;;;;;;;;;;6.70;79.10;;;;;;5028373;28;117470;-82
2020/12/28 13:48:40;;;;;;;;;;;6.70;78.90;;;;;;5026427;28;117354;-82
2020/12/28 13:51:06;;;;;;;;;;;6.70;79.00;;;;;;5024481;28;120204;-82
2020/12/28 13:53:31;;;;;;;;;;;6.70;79.00;;;;;;5024867;28;120303;-82
2020/12/28 13:55:57;;;;;;;;;;;6.70;78.90;;;;;;5025493;28;117543;-82
2020/12/28 13:58:22;;;;;;;;;;;6.70;78.90;;;;;;5026237;28;117869;-82
2020/12/28 14:00:48;;;;;;;;;;;6.70;78.80;;;;;;5024739;28;120620;-82
2020/12/28 14:03:14;;;;;;;;;;;6.70;78.80;;;;;;5024646;28;117397;-82
2020/12/28 14:05:39;;;;;;;;;;;6.80;78.80;;;;;;5025811;27;117621;-82
2020/12/28 14:08:05;;;;;;;;;;;6.80;78.80;;;;;;5025935;28;118095;-82
2020/12/28 14:10:31;;;;;;;;;;;6.80;78.80;;;;;;5024541;28;120232;-82
2020/12/28 14:12:56;;;;;;;;;;;6.80;78.70;;;;;;5025471;28;117468;-82
2020/12/28 14:15:22;;;;;;;;;;;6.80;78.70;;;;;;5025493;28;117606;-82